Sample Charts Sidebar
> Live data! Your data is on the web site for you to access within minutes
 
> Detailed data is easily downloaded as data file, which can be opened with Excel
 
> Charts can be customised if necessary
  Chart 1
 

(A maximum of 50 rows are displayed here. Use "Export Data" to see all rows in the date range.)
Date Collected Temp
(Celcius)
Wind-chill
(Celcius)
Wind Speed
(km/hr)
Gust
(km/hr)
Wind Direction
(degrees)
2018-12-12 22:00 17.7 15.6 6 13 20
2018-12-12 21:00 18.8 16.4 7 16 27
2018-12-12 20:00 18.8 15.7 8 20 353
2018-12-12 19:00 18.8 16.7 6 14 12
2018-12-12 18:00 18.8 15.4 8 23 6
2018-12-12 17:00 18.2 16.0 6 12 41
2018-12-12 16:00 17.8 17.8 2 5 17
2018-12-12 15:00 18.2 17.1 4 10 33
2018-12-12 14:00 18.2 17.5 3 11 331
2018-12-12 13:00 18.9 16.5 6 19 341
2018-12-12 12:00 19.4 16.6 7 15 2
2018-12-12 11:00 19.1 16.9 6 13 20
2018-12-12 10:00 19.4 16.6 7 16 24
2018-12-12 09:00 19.3 16.9 6 15 28
2018-12-12 08:00 18.7 16.6 6 15 24
2018-12-12 07:00 18.5 16.3 6 18 24
2018-12-12 06:00 18.4 16.9 5 11 30
2018-12-12 05:00 18.4 17.3 4 11 40
2018-12-12 04:00 18.4 17.1 5 11 35
2018-12-12 03:00 18.5 17.1 5 11 47
2018-12-12 02:00 18.7 18.0 3 8 24
2018-12-12 01:00 18.7 17.2 5 12 24
2018-12-12 00:00 18.8 17.7 4 12 16
2018-12-11 23:00 18.8 16.9 5 15 360
2018-12-11 22:00 18.3 17.3 4 12 9
2018-12-11 21:00 18.8 17.9 4 11 10
2018-12-11 20:00 18.7 16.9 5 12 2
2018-12-11 19:00 18.6 17.5 4 12 355
2018-12-11 18:00 18.6 17.9 4 11 20
2018-12-11 17:00 18.7 18.0 3 10 4
2018-12-11 16:00 18.8 17.8 4 13 22
2018-12-11 15:00 18.9 17.6 5 11 23
2018-12-11 14:00 18.9 17.9 4 11 34
2018-12-11 13:00 19.3 18.2 4 12 359
2018-12-11 12:00 19.4 17.4 6 15 28
2018-12-11 11:00 19.3 17.9 5 11 10
2018-12-11 10:00 18.9 17.7 4 10 29
2018-12-11 09:00 19.5 17.5 6 17 16
2018-12-11 08:00 19.0 17.6 5 13 38
2018-12-11 07:00 20.0 17.9 6 18 31
2018-12-11 06:00 20.2 18.0 6 18 19
2018-12-11 05:00 20.0 17.9 6 16 27
2018-12-11 04:00 20.2 17.8 7 15 24
2018-12-11 03:00 20.0 17.7 7 16 23
2018-12-11 02:00 19.7 17.4 6 22 26
2018-12-11 01:00 18.9 16.8 6 13 42
2018-12-11 00:00 17.7 16.8 4 10 42
2018-12-10 23:00 16.6 16.2 3 7 54
2018-12-10 22:00 16.4 16.1 3 6 60
2018-12-10 21:00 16.9 16.4 4 7 58